createdAt,value
2022-12-12T00:01:26.272Z,8.67
2022-12-12T00:03:54.542Z,9.13
2022-12-12T00:06:23.897Z,9.23
2022-12-12T00:08:52.363Z,11.60
2022-12-12T00:11:20.548Z,9.17
2022-12-12T00:13:48.878Z,8.17
2022-12-12T00:16:18.033Z,11.87
2022-12-12T00:18:47.085Z,8.87
2022-12-12T00:21:16.928Z,9.27
2022-12-12T00:23:45.430Z,8.67
2022-12-12T00:26:19.995Z,10.33
2022-12-12T00:28:48.267Z,9.07
2022-12-12T00:31:16.858Z,10.00
2022-12-12T00:33:49.038Z,10.57
2022-12-12T00:36:17.694Z,9.60
2022-12-12T00:38:45.545Z,10.07
2022-12-12T00:41:13.282Z,11.03
2022-12-12T00:43:41.758Z,9.53
2022-12-12T00:46:09.901Z,9.33
2022-12-12T00:48:38.176Z,9.33
2022-12-12T00:51:12.417Z,10.30
2022-12-12T00:53:40.864Z,11.20
2022-12-12T00:56:08.552Z,7.87
2022-12-12T00:58:36.794Z,9.20
2022-12-12T01:01:10.911Z,9.20
2022-12-12T01:03:40.867Z,9.43
2022-12-12T01:06:11.363Z,9.60
2022-12-12T01:08:39.865Z,8.87
2022-12-12T01:11:11.111Z,10.23
2022-12-12T01:13:39.038Z,8.20
2022-12-12T01:16:09.188Z,10.20
2022-12-12T01:18:37.868Z,9.67
2022-12-12T01:21:10.652Z,9.70
2022-12-12T01:23:39.198Z,10.07
2022-12-12T01:26:10.055Z,9.63
2022-12-12T01:28:38.302Z,8.33
2022-12-12T01:31:07.483Z,9.43
2022-12-12T01:33:35.416Z,9.03
2022-12-12T01:36:03.907Z,8.27
2022-12-12T01:38:32.975Z,10.43
2022-12-12T01:41:01.364Z,10.30
2022-12-12T01:43:30.012Z,8.57
2022-12-12T01:46:39.932Z,7.17
2022-12-12T01:49:14.223Z,8.63
2022-12-12T01:51:44.445Z,7.57
2022-12-12T01:54:17.984Z,9.20
2022-12-12T01:56:49.232Z,10.70
2022-12-12T01:59:20.128Z,8.37
2022-12-12T02:01:49.644Z,7.37
2022-12-12T02:04:18.789Z,8.63
2022-12-12T02:06:47.267Z,10.20
2022-12-12T02:09:18.080Z,9.40
2022-12-12T02:11:47.963Z,9.20
2022-12-12T02:14:19.672Z,8.97
2022-12-12T02:17:30.549Z,11.10
2022-12-12T02:20:42.796Z,8.00
2022-12-12T02:23:51.784Z,7.17
2022-12-12T02:26:48.053Z,9.30
2022-12-12T02:29:50.929Z,7.77
2022-12-12T02:32:26.437Z,9.73
2022-12-12T02:35:02.141Z,9.03
2022-12-12T02:37:38.388Z,8.80
2022-12-12T02:40:14.659Z,8.07
2022-12-12T02:42:48.162Z,8.60
2022-12-12T02:45:21.339Z,8.00
2022-12-12T02:47:55.700Z,9.77
2022-12-12T02:50:26.832Z,10.53
2022-12-12T02:52:54.604Z,8.83
2022-12-12T02:55:22.815Z,8.40
2022-12-12T02:57:52.994Z,8.23
2022-12-12T03:00:21.897Z,8.70
2022-12-12T03:03:33.488Z,10.50
2022-12-12T03:06:39.351Z,8.80
2022-12-12T03:09:17.093Z,7.33
2022-12-12T03:12:03.017Z,9.93
2022-12-12T03:14:46.198Z,7.03
2022-12-12T03:17:21.925Z,8.83
2022-12-12T03:20:00.452Z,7.87
2022-12-12T03:22:37.757Z,9.87
2022-12-12T03:25:11.073Z,8.17
2022-12-12T03:27:45.998Z,7.93
2022-12-12T03:30:16.483Z,7.60
2022-12-12T03:32:51.884Z,6.80
2022-12-12T03:35:27.485Z,7.27
2022-12-12T03:38:00.606Z,6.80
2022-12-12T03:40:33.432Z,7.87
2022-12-12T03:43:07.130Z,8.10
2022-12-12T03:45:39.341Z,10.10
2022-12-12T03:48:14.602Z,7.90
2022-12-12T03:50:47.171Z,7.67
2022-12-12T03:53:20.763Z,8.53
2022-12-12T03:55:54.717Z,8.87
2022-12-12T03:58:28.735Z,6.93
2022-12-12T04:00:59.266Z,6.40
2022-12-12T04:03:34.295Z,8.63
2022-12-12T04:06:28.546Z,6.37
2022-12-12T04:09:17.449Z,7.60
2022-12-12T04:12:15.452Z,6.13
2022-12-12T04:15:04.889Z,6.33
2022-12-12T04:17:39.973Z,5.90
2022-12-12T04:20:34.719Z,6.83
2022-12-12T04:23:17.789Z,6.70
2022-12-12T04:26:15.300Z,6.00
2022-12-12T04:28:52.523Z,7.10
2022-12-12T04:31:25.392Z,6.40
2022-12-12T04:34:02.960Z,7.57
2022-12-12T04:36:34.368Z,5.83
2022-12-12T04:39:06.688Z,7.00
2022-12-12T04:41:37.703Z,8.23
2022-12-12T04:44:10.698Z,6.10
2022-12-12T04:46:41.380Z,7.13
2022-12-12T04:49:15.181Z,7.33
2022-12-12T04:51:46.917Z,6.97
2022-12-12T04:54:22.907Z,7.00
2022-12-12T04:56:55.403Z,7.10
2022-12-12T04:59:23.928Z,6.97
2022-12-12T05:01:59.144Z,6.77
2022-12-12T05:04:32.198Z,5.80
2022-12-12T05:07:05.852Z,5.50
2022-12-12T05:09:36.240Z,8.37
2022-12-12T05:12:04.264Z,6.27
2022-12-12T05:14:32.788Z,5.97
2022-12-12T05:17:06.606Z,6.70
2022-12-12T05:19:35.538Z,5.37
2022-12-12T05:22:03.170Z,5.33
2022-12-12T05:24:32.275Z,6.83
2022-12-12T05:27:02.369Z,6.07
2022-12-12T05:29:32.212Z,5.30
2022-12-12T05:31:59.970Z,5.97
2022-12-12T05:34:27.650Z,5.90
2022-12-12T05:36:55.326Z,8.00
2022-12-12T05:39:23.375Z,5.87
2022-12-12T05:41:52.600Z,7.03
2022-12-12T05:44:22.475Z,5.53
2022-12-12T05:46:50.117Z,5.47
2022-12-12T05:49:17.899Z,6.37
2022-12-12T05:51:46.231Z,6.07
2022-12-12T05:54:14.751Z,4.77
2022-12-12T05:56:42.421Z,6.40
2022-12-12T05:59:10.415Z,5.80
2022-12-12T06:01:39.409Z,6.60
2022-12-12T06:04:07.673Z,5.27
2022-12-12T06:06:35.475Z,5.53
2022-12-12T06:09:03.296Z,5.80
2022-12-12T06:11:30.939Z,5.77
2022-12-12T06:13:59.151Z,5.77
2022-12-12T06:16:27.014Z,6.73
2022-12-12T06:18:56.948Z,5.90
2022-12-12T06:21:24.731Z,6.40
2022-12-12T06:23:52.460Z,8.13
2022-12-12T06:26:21.545Z,6.27
2022-12-12T06:28:49.811Z,6.70
2022-12-12T06:31:18.127Z,8.50
2022-12-12T06:33:46.015Z,6.93
2022-12-12T06:36:23.613Z,7.43
2022-12-12T06:38:51.700Z,6.30
2022-12-12T06:41:20.068Z,7.40
2022-12-12T06:43:47.935Z,8.40
2022-12-12T06:46:17.647Z,8.80
2022-12-12T06:48:46.458Z,6.83
2022-12-12T06:51:20.200Z,6.43
2022-12-12T06:53:48.280Z,5.87
2022-12-12T06:56:18.379Z,7.87
2022-12-12T06:58:46.140Z,6.47
2022-12-12T07:01:15.655Z,6.90
2022-12-12T07:03:43.314Z,5.73
2022-12-12T07:06:12.039Z,6.97
2022-12-12T07:08:41.579Z,6.43
2022-12-12T07:11:13.124Z,6.40
2022-12-12T07:13:41.448Z,5.60
2022-12-12T07:16:10.358Z,5.57
2022-12-12T07:18:38.282Z,7.70
2022-12-12T07:21:09.099Z,7.17
2022-12-12T07:23:37.223Z,6.67
2022-12-12T07:26:09.289Z,6.30
2022-12-12T07:28:38.094Z,6.27
2022-12-12T07:31:08.164Z,5.93
2022-12-12T07:33:43.459Z,6.63
2022-12-12T07:36:12.541Z,4.73
2022-12-12T07:38:40.183Z,5.23
2022-12-12T07:41:11.696Z,5.47
2022-12-12T07:43:43.662Z,6.43
2022-12-12T07:46:16.078Z,5.07
2022-12-12T07:48:43.921Z,6.17
2022-12-12T07:51:12.072Z,6.30
2022-12-12T07:53:39.710Z,6.83
2022-12-12T07:56:08.776Z,7.30
2022-12-12T07:58:38.269Z,7.57
2022-12-12T08:01:14.314Z,7.93
2022-12-12T08:03:42.899Z,7.20
2022-12-12T08:06:11.472Z,6.07
2022-12-12T08:08:39.237Z,6.50
2022-12-12T08:11:08.460Z,6.00
2022-12-12T08:13:39.460Z,4.80
2022-12-12T08:16:13.091Z,4.57
2022-12-12T08:18:40.795Z,6.00
2022-12-12T08:21:09.641Z,6.20
2022-12-12T08:23:37.396Z,5.80
2022-12-12T08:26:09.727Z,4.67
2022-12-12T08:28:41.241Z,5.37
2022-12-12T08:31:09.583Z,5.70
2022-12-12T08:33:37.280Z,6.70
2022-12-12T08:36:13.327Z,6.90
2022-12-12T08:38:40.974Z,8.33
2022-12-12T08:41:10.155Z,5.80
2022-12-12T08:43:40.483Z,7.30
2022-12-12T08:46:13.850Z,5.33
2022-12-12T08:48:45.784Z,5.63
2022-12-12T08:51:14.353Z,5.83
2022-12-12T08:53:44.888Z,6.60
2022-12-12T08:56:13.071Z,5.87
2022-12-12T08:58:42.209Z,6.33
2022-12-12T09:01:14.270Z,4.57
2022-12-12T09:03:42.142Z,3.80
2022-12-12T09:06:11.520Z,3.83
2022-12-12T09:08:39.755Z,4.83
2022-12-12T09:11:08.100Z,3.53
2022-12-12T09:13:35.896Z,4.57
2022-12-12T09:16:06.344Z,5.23
2022-12-12T09:18:34.454Z,4.70
2022-12-12T09:21:02.525Z,4.13
2022-12-12T09:23:30.355Z,3.60
2022-12-12T09:25:58.944Z,3.40
2022-12-12T09:28:27.816Z,4.23
2022-12-12T09:30:55.760Z,4.30
2022-12-12T09:33:24.777Z,3.10
2022-12-12T09:35:58.660Z,4.40
2022-12-12T09:38:27.488Z,3.60
2022-12-12T09:41:00.257Z,4.53
2022-12-12T09:43:33.533Z,6.93
2022-12-12T09:46:03.809Z,3.97
2022-12-12T09:48:41.989Z,3.67
2022-12-12T09:51:11.208Z,4.37
2022-12-12T09:53:41.116Z,3.67
2022-12-12T09:56:16.359Z,5.50
2022-12-12T09:58:55.364Z,4.67
2022-12-12T10:01:31.165Z,3.50
2022-12-12T10:04:12.817Z,4.03
2022-12-12T10:06:46.525Z,4.97
2022-12-12T10:09:33.313Z,4.70
2022-12-12T10:12:08.390Z,4.30
2022-12-12T10:14:41.818Z,4.10
2022-12-12T10:17:13.283Z,5.67
2022-12-12T10:19:48.968Z,5.17
2022-12-12T10:22:26.620Z,6.30
2022-12-12T10:24:59.441Z,4.50
2022-12-12T10:27:27.102Z,3.90
2022-12-12T10:29:56.701Z,5.70
2022-12-12T10:32:36.144Z,4.00
2022-12-12T10:35:22.711Z,5.90
2022-12-12T10:38:03.592Z,3.27
2022-12-12T10:40:45.389Z,5.20
2022-12-12T10:43:22.573Z,4.47
2022-12-12T10:46:16.231Z,4.67
2022-12-12T10:48:45.669Z,3.83
2022-12-12T10:51:18.700Z,3.77
2022-12-12T10:53:47.911Z,3.40
2022-12-12T10:56:21.495Z,4.17
2022-12-12T10:58:54.343Z,4.87
2022-12-12T11:01:52.296Z,3.57
2022-12-12T11:04:15.212Z,4.67
2022-12-12T11:06:48.070Z,4.73
2022-12-12T11:09:20.303Z,3.63
2022-12-12T11:11:59.122Z,3.40
2022-12-12T11:14:32.624Z,3.60
2022-12-12T11:17:00.359Z,3.80
2022-12-12T11:19:29.201Z,3.80
2022-12-12T11:22:05.288Z,5.23
2022-12-12T11:24:36.164Z,3.93
2022-12-12T11:27:06.261Z,5.10
2022-12-12T11:29:42.913Z,4.27
2022-12-12T11:32:14.240Z,4.40
2022-12-12T11:34:47.379Z,4.43
2022-12-12T11:37:18.233Z,3.63
2022-12-12T11:39:47.856Z,3.40
2022-12-12T11:42:21.910Z,4.03
2022-12-12T11:45:00.026Z,3.90
2022-12-12T11:47:29.916Z,3.67
2022-12-12T11:49:59.822Z,4.20
2022-12-12T11:52:32.224Z,2.73
2022-12-12T11:55:01.600Z,2.63
2022-12-12T11:57:49.536Z,3.17
2022-12-12T12:00:20.808Z,2.90
2022-12-12T12:06:10.104Z,2.83
2022-12-12T12:08:59.138Z,2.60
2022-12-12T12:11:33.260Z,3.40
2022-12-12T12:14:13.788Z,3.43
2022-12-12T12:16:53.090Z,2.83
2022-12-12T12:19:28.715Z,3.07
2022-12-12T12:22:03.462Z,3.30
2022-12-12T12:24:56.781Z,3.40
2022-12-12T12:27:34.046Z,3.77
2022-12-12T12:30:14.724Z,2.63
2022-12-12T12:32:58.884Z,2.67
2022-12-12T12:35:30.924Z,3.20
2022-12-12T12:38:14.486Z,2.70
2022-12-12T12:41:09.662Z,3.23
2022-12-12T12:43:52.448Z,3.30
2022-12-12T12:46:32.149Z,3.83
2022-12-12T12:49:04.609Z,3.30
2022-12-12T12:51:36.759Z,3.83
2022-12-12T12:54:07.471Z,4.37
2022-12-12T12:56:43.995Z,2.53
2022-12-12T12:59:18.091Z,2.13
2022-12-12T13:01:49.377Z,2.90
2022-12-12T13:04:25.574Z,3.10
2022-12-12T13:06:57.515Z,6.17
2022-12-12T13:09:33.498Z,5.30
2022-12-12T13:12:10.165Z,6.07
2022-12-12T13:14:47.487Z,3.80
2022-12-12T13:17:19.962Z,5.40
2022-12-12T13:19:53.753Z,6.27
2022-12-12T13:22:31.577Z,4.70
2022-12-12T13:25:07.237Z,3.50
2022-12-12T13:27:45.616Z,4.20
2022-12-12T13:30:23.416Z,3.93
2022-12-12T13:33:06.436Z,3.63
2022-12-12T13:35:40.105Z,5.97
2022-12-12T13:38:19.088Z,3.97
2022-12-12T13:40:57.459Z,4.20
2022-12-12T13:43:40.307Z,4.00
2022-12-12T13:46:42.408Z,3.47
2022-12-12T13:49:31.246Z,3.73
2022-12-12T13:52:23.898Z,3.57
2022-12-12T13:54:53.937Z,3.97
2022-12-12T13:57:32.141Z,3.67
2022-12-12T14:00:21.418Z,3.73
2022-12-12T14:03:03.112Z,3.47
2022-12-12T14:05:35.520Z,3.03
2022-12-12T14:08:08.975Z,4.27
2022-12-12T14:10:40.444Z,4.40
2022-12-12T14:13:18.592Z,6.17
2022-12-12T14:15:51.380Z,5.27
2022-12-12T14:18:25.871Z,3.07
2022-12-12T14:21:03.054Z,2.83
2022-12-12T14:23:32.636Z,3.13
2022-12-12T14:26:01.504Z,3.70
2022-12-12T14:28:31.104Z,2.57
2022-12-12T14:31:09.123Z,4.10
2022-12-12T14:34:06.206Z,2.73
2022-12-12T14:36:52.285Z,4.00
2022-12-12T14:39:34.857Z,3.00
2022-12-12T14:42:07.005Z,2.90
2022-12-12T14:44:37.421Z,2.87
2022-12-12T14:47:09.686Z,3.60
2022-12-12T14:49:37.450Z,3.60
2022-12-12T14:52:05.680Z,2.17
2022-12-12T14:54:33.432Z,2.37
2022-12-12T14:57:01.942Z,3.17
2022-12-12T14:59:33.469Z,2.00
2022-12-12T15:02:07.070Z,3.07
2022-12-12T15:04:39.619Z,2.20
2022-12-12T15:07:22.660Z,3.33
2022-12-12T15:09:50.592Z,2.73
2022-12-12T15:12:21.046Z,2.67
2022-12-12T15:14:55.102Z,2.93
2022-12-12T15:17:27.288Z,4.27
2022-12-12T15:19:59.456Z,3.37
2022-12-12T15:22:29.835Z,5.17
2022-12-12T15:24:59.470Z,4.17
2022-12-12T15:27:32.164Z,4.00
2022-12-12T15:30:01.509Z,3.70
2022-12-12T15:32:30.709Z,4.20
2022-12-12T15:35:05.891Z,5.00
2022-12-12T15:37:35.145Z,4.90
2022-12-12T15:40:22.594Z,5.27
2022-12-12T15:42:55.567Z,5.03
2022-12-12T15:45:26.678Z,3.87
2022-12-12T15:47:56.869Z,4.70
2022-12-12T15:50:28.584Z,4.77
2022-12-12T15:53:03.195Z,4.23
2022-12-12T15:55:31.032Z,4.77
2022-12-12T15:57:59.155Z,4.00
2022-12-12T16:00:35.184Z,5.67
2022-12-12T16:03:06.461Z,4.37
2022-12-12T16:05:37.743Z,5.30
2022-12-12T16:08:32.053Z,7.53
2022-12-12T16:11:02.383Z,4.40
2022-12-12T16:13:37.795Z,3.03
2022-12-12T16:16:36.020Z,4.60
2022-12-12T16:19:05.276Z,4.77
2022-12-12T16:21:36.658Z,4.67
2022-12-12T16:24:13.275Z,4.67
2022-12-12T16:26:40.915Z,3.83
2022-12-12T16:29:08.564Z,4.17
2022-12-12T16:34:22.535Z,5.67
2022-12-12T16:36:51.896Z,4.30
2022-12-12T16:39:19.637Z,6.20
2022-12-12T16:41:48.129Z,6.97
2022-12-12T16:44:15.763Z,5.93
2022-12-12T16:46:43.404Z,5.20
2022-12-12T16:49:15.257Z,4.13
2022-12-12T16:51:43.691Z,4.13
2022-12-12T16:54:17.716Z,3.60
2022-12-12T16:56:52.559Z,3.33
2022-12-12T16:59:20.260Z,3.97
2022-12-12T17:01:48.961Z,4.10
2022-12-12T17:04:22.215Z,5.07
2022-12-12T17:06:51.096Z,4.43
2022-12-12T17:09:21.505Z,3.77
2022-12-12T17:11:51.660Z,3.77
2022-12-12T17:14:22.649Z,3.77
2022-12-12T17:16:51.393Z,4.70
2022-12-12T17:19:20.621Z,3.00
2022-12-12T17:21:48.988Z,5.40
2022-12-12T17:24:16.796Z,5.33
2022-12-12T17:26:46.119Z,4.77
2022-12-12T17:29:14.187Z,6.37
2022-12-12T17:31:41.893Z,7.87
2022-12-12T17:34:11.470Z,15.10
2022-12-12T17:36:39.347Z,33.43
2022-12-12T17:39:07.774Z,40.30
2022-12-12T17:41:35.703Z,33.57
2022-12-12T17:44:05.506Z,23.50
2022-12-12T17:46:33.193Z,16.37
2022-12-12T17:49:02.004Z,15.23
2022-12-12T17:51:30.083Z,12.03
2022-12-12T17:54:00.251Z,12.60
2022-12-12T17:56:28.377Z,14.70
2022-12-12T17:58:56.971Z,10.97
2022-12-12T18:01:28.313Z,10.27
2022-12-12T18:03:57.549Z,14.13
2022-12-12T18:06:27.029Z,13.13
2022-12-12T18:08:55.858Z,13.30
2022-12-12T18:11:26.857Z,9.87
2022-12-12T18:13:57.964Z,10.00
2022-12-12T18:16:29.179Z,10.03
2022-12-12T18:18:57.851Z,13.30
2022-12-12T18:21:59.085Z,11.07
2022-12-12T18:24:17.616Z,14.53
2022-12-12T18:26:45.468Z,10.43
2022-12-12T18:29:14.529Z,12.03
2022-12-12T18:31:43.606Z,9.17
2022-12-12T18:34:11.649Z,7.70
2022-12-12T18:36:39.941Z,7.23
2022-12-12T18:39:08.662Z,6.37
2022-12-12T18:41:37.505Z,5.80
2022-12-12T18:44:07.188Z,6.77
2022-12-12T18:46:40.543Z,7.50
2022-12-12T18:49:15.271Z,8.93
2022-12-12T18:51:44.275Z,6.30
2022-12-12T18:54:15.541Z,7.33
2022-12-12T18:56:45.078Z,7.47
2022-12-12T18:59:13.345Z,8.70
2022-12-12T19:01:41.122Z,8.73
2022-12-12T19:04:13.113Z,6.77
2022-12-12T19:06:44.465Z,9.37
2022-12-12T19:09:15.603Z,7.23
2022-12-12T19:11:44.236Z,6.80
2022-12-12T19:14:15.226Z,4.93
2022-12-12T19:16:43.768Z,5.40
2022-12-12T19:19:12.197Z,5.43
2022-12-12T19:21:42.039Z,5.70
2022-12-12T19:24:12.671Z,5.67
2022-12-12T19:26:43.714Z,6.53
2022-12-12T19:29:13.900Z,5.27
2022-12-12T19:31:42.515Z,6.50
2022-12-12T19:34:12.810Z,7.67
2022-12-12T19:36:41.465Z,7.60
2022-12-12T19:39:13.968Z,12.30
2022-12-12T19:41:42.427Z,11.53
2022-12-12T19:44:12.858Z,16.23
2022-12-12T19:46:43.078Z,13.63
2022-12-12T19:49:12.722Z,16.83
2022-12-12T19:51:43.159Z,15.97
2022-12-12T19:54:14.649Z,11.97
2022-12-12T19:56:42.415Z,8.63
2022-12-12T19:59:13.017Z,10.37
2022-12-12T20:01:41.418Z,9.50
2022-12-12T20:04:14.519Z,11.40
2022-12-12T20:06:45.698Z,10.60
2022-12-12T20:09:17.026Z,21.93
2022-12-12T20:11:45.813Z,14.80
2022-12-12T20:14:15.312Z,12.77
2022-12-12T20:16:43.463Z,10.67
2022-12-12T20:19:11.852Z,8.83
2022-12-12T20:24:34.496Z,13.10
2022-12-12T20:27:04.390Z,8.60
2022-12-12T20:29:32.332Z,8.63
2022-12-12T20:32:01.586Z,8.53
2022-12-12T20:34:29.676Z,7.30
2022-12-12T20:36:58.967Z,7.40
2022-12-12T20:39:26.763Z,7.07
2022-12-12T20:41:56.934Z,12.20
2022-12-12T20:44:25.759Z,9.77
2022-12-12T20:46:53.722Z,12.23
2022-12-12T20:49:23.876Z,8.43
2022-12-12T20:51:56.969Z,8.33
2022-12-12T20:54:25.988Z,7.13
2022-12-12T20:56:54.260Z,5.67
2022-12-12T20:59:23.848Z,4.93
2022-12-12T21:01:52.409Z,3.77
2022-12-12T21:04:20.186Z,4.23
2022-12-12T21:06:49.605Z,5.37
2022-12-12T21:09:23.675Z,4.97
2022-12-12T21:11:53.058Z,3.70
2022-12-12T21:14:20.787Z,2.80
2022-12-12T21:16:49.795Z,2.87
2022-12-12T21:19:18.750Z,3.13
2022-12-12T21:21:46.923Z,2.93
2022-12-12T21:24:17.842Z,4.87
2022-12-12T21:26:46.059Z,4.63
2022-12-12T21:29:13.879Z,4.93
2022-12-12T21:31:49.950Z,4.47
2022-12-12T21:34:21.003Z,5.60
2022-12-12T21:36:51.481Z,7.13
2022-12-12T21:39:19.227Z,7.17
2022-12-12T21:41:47.026Z,7.33
2022-12-12T21:44:14.673Z,6.30
2022-12-12T21:46:44.019Z,8.53
2022-12-12T21:49:26.298Z,6.63
2022-12-12T21:51:57.472Z,7.63
2022-12-12T21:54:26.013Z,10.27
2022-12-12T21:56:54.432Z,9.70
2022-12-12T21:59:22.419Z,10.63
2022-12-12T22:01:50.139Z,8.43
2022-12-12T22:04:17.802Z,9.47
2022-12-12T22:06:46.708Z,8.10
2022-12-12T22:09:15.727Z,10.23
2022-12-12T22:11:49.842Z,9.70
2022-12-12T22:14:20.876Z,9.07
2022-12-12T22:16:48.880Z,11.40
2022-12-12T22:19:17.172Z,8.27
2022-12-12T22:21:46.442Z,8.53
2022-12-12T22:24:15.740Z,8.53
2022-12-12T22:26:45.076Z,8.60
2022-12-12T22:29:15.850Z,8.37
2022-12-12T22:31:44.768Z,8.40
2022-12-12T22:34:14.612Z,8.93
2022-12-12T22:36:43.107Z,7.00
2022-12-12T22:39:16.499Z,6.90
2022-12-12T22:41:44.623Z,7.33
2022-12-12T22:44:15.799Z,8.63
2022-12-12T22:46:44.651Z,6.27
2022-12-12T22:49:14.236Z,11.50
2022-12-12T22:51:42.313Z,13.67
2022-12-12T22:54:10.236Z,15.80
2022-12-12T22:56:40.433Z,15.33
2022-12-12T22:59:09.817Z,17.77
2022-12-12T23:01:37.476Z,17.40
2022-12-12T23:04:06.207Z,13.10
2022-12-12T23:06:36.610Z,8.50
2022-12-12T23:09:08.264Z,7.90
2022-12-12T23:11:36.841Z,8.07
2022-12-12T23:14:08.512Z,6.37
2022-12-12T23:16:37.451Z,6.40
2022-12-12T23:19:07.803Z,6.47
2022-12-12T23:21:37.529Z,6.47
2022-12-12T23:24:07.477Z,6.97
2022-12-12T23:26:37.369Z,6.40
2022-12-12T23:29:09.458Z,6.07
2022-12-12T23:31:39.159Z,8.47
2022-12-12T23:34:13.903Z,7.67
2022-12-12T23:36:42.193Z,7.97
2022-12-12T23:39:12.475Z,9.03
2022-12-12T23:41:40.865Z,8.53
2022-12-12T23:44:13.337Z,7.73
2022-12-12T23:46:41.556Z,8.90
2022-12-12T23:49:14.539Z,8.90
2022-12-12T23:51:43.985Z,9.37
2022-12-12T23:54:14.851Z,9.27
2022-12-12T23:56:43.187Z,9.20
2022-12-12T23:59:17.531Z,10.97
